MSC Poh Lin — H8FC — position and weather

sailwx.info

Track history (hours):
 
Tides and Currents Weather Stations Pressure Air Temp Water Temp Dewpoint Dewpoint Depression Visibility Wind Speed Wind Dir Waves Ship Positions

MSC Poh Lin

Last reported at 2015-Jul-29 17:33 UTC. Time now 2015-Jul-29 17:57 UTC.
Position N 43°59' E 009°56'.

Length 294 m; draft 9.9 m.

Type: Ship (hazmat cat A). MMSI: 357405000.

Date/timePositionNaut miles runAvg speedWind from/ knotsBaromVisibWave heightAir tempDewpointWater temp
2015-Jul-29 17:33N 43°59' E 009°56'4 3.8
2015-Jul-29 16:33N 43°56' E 009°54'1313.0
2015-Jul-29 15:33N 43°43' E 009°49'2019.6
2015-Jul-29 14:33N 43°24' E 009°44'2020.4
2015-Jul-29 13:33N 43°04' E 009°38'2019.6
2015-Jul-29 12:33N 42°44' E 009°44'2020.1
2015-Jul-29 11:33N 42°25' E 009°52'2717.8
2015-Jul-29 10:04N 42°11' E 010°22'159 3.8
2015-Jul-27 16:33N 40°31' E 013°06'16615.9
2015-Jul-27 06:06N 38°34' E 015°39'1119.6
2015-Jul-27 05:33N 38°29' E 015°51'3 2.7
2015-Jul-27 04:28N 38°28' E 015°55'0 0.0
2015-Jul-27 03:28N 38°28' E 015°55'0 0.0
2015-Jul-27 02:31N 38°28' E 015°55'0 0.0
2015-Jul-27 01:25N 38°28' E 015°55'0 0.0
2015-Jul-27 00:28N 38°28' E 015°55'0 0.0
2015-Jul-26 23:28N 38°28' E 015°55'0 0.0
2015-Jul-26 22:28N 38°28' E 015°55'0 0.0
2015-Jul-26 21:31N 38°28' E 015°55'0 0.0
2015-Jul-26 20:28N 38°28' E 015°55'0 0.0
2015-Jul-26 19:31N 38°28' E 015°55'0 0.0
2015-Jul-26 18:28N 38°28' E 015°55'0 0.0
2015-Jul-26 17:28N 38°28' E 015°55'0 0.0
2015-Jul-26 16:28N 38°28' E 015°55'0 0.0
2015-Jul-26 15:31N 38°28' E 015°55'0 0.0
2015-Jul-26 14:31N 38°28' E 015°55'0 0.0
2015-Jul-26 13:31N 38°28' E 015°55'0 0.0
2015-Jul-26 12:31N 38°28' E 015°55'0 0.0
2015-Jul-26 11:25N 38°28' E 015°55'0 0.0
2015-Jul-26 10:31N 38°28' E 015°55'0 0.0
2015-Jul-26 09:31N 38°28' E 015°55'0 0.0
2015-Jul-26 08:19N 38°28' E 015°55'0 0.0
2015-Jul-26 07:25N 38°28' E 015°55'0 0.0
2015-Jul-26 06:31N 38°28' E 015°55'0 0.0
2015-Jul-26 05:31N 38°28' E 015°55'0 0.0
2015-Jul-26 04:31N 38°28' E 015°55'0 0.0
2015-Jul-26 03:19N 38°28' E 015°55'0 0.0
2015-Jul-26 02:28N 38°28' E 015°55'0 0.0
2015-Jul-26 01:34N 38°28' E 015°55'0 0.0
2015-Jul-26 00:31N 38°28' E 015°55'0 0.0
2015-Jul-25 23:13N 38°28' E 015°55'0 0.0
2015-Jul-25 21:31N 38°28' E 015°55'0 0.0
2015-Jul-25 20:31N 38°28' E 015°55'0 0.0
2015-Jul-25 19:33N 38°28' E 015°55'4 3.9
2015-Jul-25 18:33N 38°27' E 015°50'1313.3
2015-Jul-25 17:33N 38°24' E 015°33'1818.3
2015-Jul-25 16:33N 38°21' E 015°10'1918.5
2015-Jul-25 15:33N 38°21' E 014°46'6020.1
2015-Jul-25 12:33N 38°24' E 013°30'2120.6
2015-Jul-25 11:33N 38°24' E 013°03'2720.6
2015-Jul-25 10:13N 38°20' E 012°29'31121.0
2015-Jul-24 19:27N 37°28' E 006°00'2021.0
2015-Jul-24 18:31N 37°25' E 005°36'2621.5
2015-Jul-24 17:19N 37°20' E 005°04'1621.4
2015-Jul-24 16:33N 37°18' E 004°44'2121.2
2015-Jul-24 15:33N 37°14' E 004°17'2921.8
2015-Jul-24 14:13N 37°09' E 003°41'1621.5
2015-Jul-24 13:28N 37°06' E 003°21'1921.1
2015-Jul-24 12:34N 37°03' E 002°58'2121.4
2015-Jul-24 11:33N 36°60' E 002°31'2221.5
2015-Jul-24 10:33N 36°56' E 002°05'6621.7
2015-Jul-24 07:30N 36°45' E 000°43'2021.1
2015-Jul-24 06:33N 36°42' E 000°18'4321.3
2015-Jul-24 04:32N 36°35' W 000°34'4120.9
2015-Jul-24 02:33N 36°27' W 001°25'2120.8
2015-Jul-24 01:33N 36°24' W 001°50'2221.0
2015-Jul-24 00:31N 36°21' W 002°17'19221.4
2015-Jul-23 15:34N 35°54' W 006°12'2221.3
2015-Jul-23 14:31N 35°54' W 006°40'5120.9
2015-Jul-23 12:06N 35°53' W 007°42'1321.3
2015-Jul-23 11:29N 35°53' W 007°58'2021.3
2015-Jul-23 10:32N 35°53' W 008°23'2121.3
2015-Jul-23 09:33N 35°52' W 008°49'2321.1
2015-Jul-23 08:26N 35°51' W 009°18'1921.2
2015-Jul-23 07:34N 35°51' W 009°41'2221.1
2015-Jul-23 06:32N 35°50' W 010°07'2020.6
2015-Jul-23 05:33N 35°49' W 010°32'2020.5
2015-Jul-23 04:33N 35°48' W 010°57'4320.6
2015-Jul-23 02:27N 35°46' W 011°51'1920.8
2015-Jul-23 01:33N 35°44' W 012°14'2420.9
2015-Jul-23 00:25N 35°43' W 012°43'1820.9
2015-Jul-22 23:33N 35°42' W 013°05'2121.1
2015-Jul-22 22:33N 35°40' W 013°31'2120.8
2015-Jul-22 21:33N 35°38' W 013°57'55121.2
2015-Jul-21 19:32N 34°24' W 025°03'2521.2
2015-Jul-21 18:20N 34°19' W 025°33'  
Track history (hours):
 
Tides and Currents Weather Stations Pressure Air Temp Water Temp Dewpoint Dewpoint Depression Visibility Wind Speed Wind Dir Waves Ship Positions

MSC Poh Lin

Last reported at 2015-Jul-29 17:33 UTC. Time now 2015-Jul-29 17:57 UTC.
Position N 43°59' E 009°56'.

Length 294 m; draft 9.9 m.

Type: Ship (hazmat cat A). MMSI: 357405000.

Date/timePositionNaut miles runAvg speedWind from/ knotsBaromVisibWave heightAir tempDewpointWater temp
2015-Jul-29 17:33N 43°59' E 009°56'4 3.8
2015-Jul-29 16:33N 43°56' E 009°54'1313.0
2015-Jul-29 15:33N 43°43' E 009°49'2019.6
2015-Jul-29 14:33N 43°24' E 009°44'2020.4
2015-Jul-29 13:33N 43°04' E 009°38'2019.6
2015-Jul-29 12:33N 42°44' E 009°44'2020.1
2015-Jul-29 11:33N 42°25' E 009°52'2717.8
2015-Jul-29 10:04N 42°11' E 010°22'159 3.8
2015-Jul-27 16:33N 40°31' E 013°06'16615.9
2015-Jul-27 06:06N 38°34' E 015°39'1119.6
2015-Jul-27 05:33N 38°29' E 015°51'3 2.7
2015-Jul-27 04:28N 38°28' E 015°55'0 0.0
2015-Jul-27 03:28N 38°28' E 015°55'0 0.0
2015-Jul-27 02:31N 38°28' E 015°55'0 0.0
2015-Jul-27 01:25N 38°28' E 015°55'0 0.0
2015-Jul-27 00:28N 38°28' E 015°55'0 0.0
2015-Jul-26 23:28N 38°28' E 015°55'0 0.0
2015-Jul-26 22:28N 38°28' E 015°55'0 0.0
2015-Jul-26 21:31N 38°28' E 015°55'0 0.0
2015-Jul-26 20:28N 38°28' E 015°55'0 0.0
2015-Jul-26 19:31N 38°28' E 015°55'0 0.0
2015-Jul-26 18:28N 38°28' E 015°55'0 0.0
2015-Jul-26 17:28N 38°28' E 015°55'0 0.0
2015-Jul-26 16:28N 38°28' E 015°55'0 0.0
2015-Jul-26 15:31N 38°28' E 015°55'0 0.0
2015-Jul-26 14:31N 38°28' E 015°55'0 0.0
2015-Jul-26 13:31N 38°28' E 015°55'0 0.0
2015-Jul-26 12:31N 38°28' E 015°55'0 0.0
2015-Jul-26 11:25N 38°28' E 015°55'0 0.0
2015-Jul-26 10:31N 38°28' E 015°55'0 0.0
2015-Jul-26 09:31N 38°28' E 015°55'0 0.0
2015-Jul-26 08:19N 38°28' E 015°55'0 0.0
2015-Jul-26 07:25N 38°28' E 015°55'0 0.0
2015-Jul-26 06:31N 38°28' E 015°55'0 0.0
2015-Jul-26 05:31N 38°28' E 015°55'0 0.0
2015-Jul-26 04:31N 38°28' E 015°55'0 0.0
2015-Jul-26 03:19N 38°28' E 015°55'0 0.0
2015-Jul-26 02:28N 38°28' E 015°55'0 0.0
2015-Jul-26 01:34N 38°28' E 015°55'0 0.0
2015-Jul-26 00:31N 38°28' E 015°55'0 0.0
2015-Jul-25 23:13N 38°28' E 015°55'0 0.0
2015-Jul-25 21:31N 38°28' E 015°55'0 0.0
2015-Jul-25 20:31N 38°28' E 015°55'0 0.0
2015-Jul-25 19:33N 38°28' E 015°55'4 3.9
2015-Jul-25 18:33N 38°27' E 015°50'1313.3
2015-Jul-25 17:33N 38°24' E 015°33'1818.3
2015-Jul-25 16:33N 38°21' E 015°10'1918.5
2015-Jul-25 15:33N 38°21' E 014°46'6020.1
2015-Jul-25 12:33N 38°24' E 013°30'2120.6
2015-Jul-25 11:33N 38°24' E 013°03'2720.6
2015-Jul-25 10:13N 38°20' E 012°29'31121.0
2015-Jul-24 19:27N 37°28' E 006°00'2021.0
2015-Jul-24 18:31N 37°25' E 005°36'2621.5
2015-Jul-24 17:19N 37°20' E 005°04'1621.4
2015-Jul-24 16:33N 37°18' E 004°44'2121.2
2015-Jul-24 15:33N 37°14' E 004°17'2921.8
2015-Jul-24 14:13N 37°09' E 003°41'1621.5
2015-Jul-24 13:28N 37°06' E 003°21'1921.1
2015-Jul-24 12:34N 37°03' E 002°58'2121.4
2015-Jul-24 11:33N 36°60' E 002°31'2221.5
2015-Jul-24 10:33N 36°56' E 002°05'6621.7
2015-Jul-24 07:30N 36°45' E 000°43'2021.1
2015-Jul-24 06:33N 36°42' E 000°18'4321.3
2015-Jul-24 04:32N 36°35' W 000°34'4120.9
2015-Jul-24 02:33N 36°27' W 001°25'2120.8
2015-Jul-24 01:33N 36°24' W 001°50'2221.0
2015-Jul-24 00:31N 36°21' W 002°17'19221.4
2015-Jul-23 15:34N 35°54' W 006°12'2221.3
2015-Jul-23 14:31N 35°54' W 006°40'5120.9
2015-Jul-23 12:06N 35°53' W 007°42'1321.3
2015-Jul-23 11:29N 35°53' W 007°58'2021.3
2015-Jul-23 10:32N 35°53' W 008°23'2121.3
2015-Jul-23 09:33N 35°52' W 008°49'2321.1
2015-Jul-23 08:26N 35°51' W 009°18'1921.2
2015-Jul-23 07:34N 35°51' W 009°41'2221.1
2015-Jul-23 06:32N 35°50' W 010°07'2020.6
2015-Jul-23 05:33N 35°49' W 010°32'2020.5
2015-Jul-23 04:33N 35°48' W 010°57'4320.6
2015-Jul-23 02:27N 35°46' W 011°51'1920.8
2015-Jul-23 01:33N 35°44' W 012°14'2420.9
2015-Jul-23 00:25N 35°43' W 012°43'1820.9
2015-Jul-22 23:33N 35°42' W 013°05'2121.1
2015-Jul-22 22:33N 35°40' W 013°31'2120.8
2015-Jul-22 21:33N 35°38' W 013°57'55121.2
2015-Jul-21 19:32N 34°24' W 025°03'2521.2
2015-Jul-21 18:20N 34°19' W 025°33'  

Dump ship's entire track history